createdAt,value
2017-08-05T00:00:19.924Z,1003.26
2017-08-05T00:02:21.842Z,1003.19
2017-08-05T00:04:46.088Z,1003.14
2017-08-05T00:07:10.316Z,1003.15
2017-08-05T00:09:34.547Z,1003.14
2017-08-05T00:11:58.738Z,1003.18
2017-08-05T00:14:22.982Z,1003.17
2017-08-05T00:16:47.217Z,1003.11
2017-08-05T00:19:11.439Z,1003.1
2017-08-05T00:21:27.168Z,1003.11
2017-08-05T00:23:34.477Z,1003.11
2017-08-05T00:25:50.234Z,1003.12
2017-08-05T00:28:14.447Z,1003.09
2017-08-05T00:30:38.631Z,1003.08
2017-08-05T00:33:02.836Z,1003.08
2017-08-05T00:35:27.016Z,1003.06
2017-08-05T00:37:51.234Z,1003.03
2017-08-05T00:40:15.387Z,1003.03
2017-08-05T00:42:39.594Z,1003.05
2017-08-05T00:45:03.795Z,1003.04
2017-08-05T00:47:27.953Z,1003.01
2017-08-05T00:49:52.128Z,1002.99
2017-08-05T00:52:16.294Z,1002.99
2017-08-05T00:54:32.003Z,1002.99
2017-08-05T00:56:47.721Z,1002.97
2017-08-05T00:59:03.439Z,1002.97
2017-08-05T01:01:27.572Z,1002.97
2017-08-05T01:03:51.744Z,1002.96
2017-08-05T01:06:15.893Z,1002.91
2017-08-05T01:08:31.625Z,1002.93
2017-08-05T01:10:55.797Z,1002.94
2017-08-05T01:13:19.957Z,1002.93
2017-08-05T01:15:35.680Z,1002.95
2017-08-05T01:17:59.811Z,1002.95
2017-08-05T01:20:15.439Z,1002.95
2017-08-05T01:22:39.561Z,1002.94
2017-08-05T01:24:55.219Z,1002.95
2017-08-05T01:27:19.320Z,1002.94
2017-08-05T01:29:20.717Z,1002.91
2017-08-05T01:31:44.836Z,1002.93
2017-08-05T01:33:46.213Z,1002.89
2017-08-05T01:36:10.353Z,1002.92
2017-08-05T01:38:26.064Z,1002.91
2017-08-05T01:40:50.221Z,1002.89
2017-08-05T01:42:52.148Z,1002.91
2017-08-05T01:45:07.866Z,1002.94
2017-08-05T01:47:23.573Z,1002.92
2017-08-05T01:49:47.720Z,1002.9
2017-08-05T01:52:03.407Z,1002.85
2017-08-05T01:54:27.521Z,1002.86
2017-08-05T01:56:51.662Z,1002.87
2017-08-05T01:59:15.816Z,1002.86
2017-08-05T02:01:40.017Z,1002.8
2017-08-05T02:04:04.176Z,1002.75
2017-08-05T02:06:28.320Z,1002.73
2017-08-05T02:08:44.011Z,1002.73
2017-08-05T02:11:08.159Z,1002.7
2017-08-05T02:13:32.311Z,1002.76
2017-08-05T02:15:56.474Z,1002.72
2017-08-05T02:18:20.674Z,1002.66
2017-08-05T02:20:44.846Z,1002.65
2017-08-05T02:23:09.034Z,1002.66
2017-08-05T02:25:33.196Z,1002.67
2017-08-05T02:27:34.603Z,1002.59
2017-08-05T02:31:43.117Z,1002.52
2017-08-05T02:34:07.286Z,1002.57
2017-08-05T02:36:31.401Z,1002.57
2017-08-05T02:38:38.659Z,1002.48
2017-08-05T02:41:02.776Z,1002.42
2017-08-05T02:43:10.021Z,1002.4
2017-08-05T02:45:34.138Z,1002.37
2017-08-05T02:47:58.273Z,1002.31
2017-08-05T02:50:13.934Z,1002.3
2017-08-05T02:52:29.627Z,1002.34
2017-08-05T02:54:53.747Z,1002.32
2017-08-05T02:57:17.880Z,1002.21
2017-08-05T02:59:41.960Z,1002.2
2017-08-05T03:02:06.116Z,1002.25
2017-08-05T03:04:21.769Z,1002.19
2017-08-05T03:06:45.897Z,1002.24
2017-08-05T03:09:10.044Z,1002.23
2017-08-05T03:11:34.191Z,1002.25
2017-08-05T03:13:58.352Z,1002.22
2017-08-05T03:16:14.049Z,1002.19
2017-08-05T03:18:38.194Z,1002.18
2017-08-05T03:20:53.872Z,1002.15
2017-08-05T03:23:17.999Z,1002.12
2017-08-05T03:25:42.127Z,1002.08
2017-08-05T03:28:06.221Z,1002.06
2017-08-05T03:30:21.913Z,1002.05
2017-08-05T03:32:46.074Z,1002.08
2017-08-05T03:35:10.243Z,1002.02
2017-08-05T03:37:34.401Z,1001.97
2017-08-05T03:39:50.100Z,1001.96
2017-08-05T03:42:14.263Z,1001.91
2017-08-05T03:44:38.429Z,1001.98
2017-08-05T03:47:02.561Z,1001.98
2017-08-05T03:49:26.721Z,1002.01
2017-08-05T03:51:50.876Z,1002.03
2017-08-05T03:54:15.037Z,1002.1
2017-08-05T03:56:39.191Z,1002.1
2017-08-05T03:59:03.371Z,1002.11
2017-08-05T04:01:27.547Z,1002.12
2017-08-05T04:03:43.274Z,1002.09
2017-08-05T04:06:07.422Z,1002.08
2017-08-05T04:08:31.552Z,1002.12
2017-08-05T04:10:55.678Z,1002.05
2017-08-05T04:13:11.354Z,1002.05
2017-08-05T04:15:12.731Z,1002.07
2017-08-05T04:17:36.879Z,1002.09
2017-08-05T04:20:01.007Z,1002.2
2017-08-05T04:22:16.667Z,1002.15
2017-08-05T04:24:40.778Z,1002.15
2017-08-05T04:26:47.997Z,1002.18
2017-08-05T04:29:03.658Z,1002.14
2017-08-05T04:31:27.769Z,1002.18
2017-08-05T04:33:51.873Z,1002.19
2017-08-05T04:36:15.948Z,1002.21
2017-08-05T04:38:40.057Z,1002.13
2017-08-05T04:40:55.731Z,1002.11
2017-08-05T04:43:19.869Z,1002.11
2017-08-05T04:45:43.964Z,1002.08
2017-08-05T04:48:08.099Z,1002.1
2017-08-05T04:50:32.270Z,1002.13
2017-08-05T04:52:48.005Z,1002.21
2017-08-05T04:55:12.186Z,1002.28
2017-08-05T04:57:36.464Z,1002.25
2017-08-05T04:59:46.982Z,1002.24
2017-08-05T05:02:11.389Z,1002.25
2017-08-05T05:04:35.885Z,1002.28
2017-08-05T05:07:00.370Z,1002.21
2017-08-05T05:09:24.875Z,1002.15
2017-08-05T05:11:49.416Z,1002.14
2017-08-05T05:14:13.958Z,1002.21
2017-08-05T05:16:38.469Z,1002.35
2017-08-05T05:19:03.089Z,1002.32
2017-08-05T05:21:27.873Z,1002.2
2017-08-05T05:23:52.638Z,1002.09
2017-08-05T05:26:17.488Z,1002.24
2017-08-05T05:28:42.390Z,1002.31
2017-08-05T05:31:07.350Z,1002.19
2017-08-05T05:33:09.423Z,1002.19
2017-08-05T05:35:34.429Z,1002.22
2017-08-05T05:37:59.559Z,1002.24
2017-08-05T05:40:24.543Z,1002.18
2017-08-05T05:42:49.475Z,1002.26
2017-08-05T05:45:14.431Z,1002.15
2017-08-05T05:47:16.045Z,1002.14
2017-08-05T05:49:32.508Z,1002.21
2017-08-05T05:51:57.429Z,1002.23
2017-08-05T05:54:08.058Z,1002.32
2017-08-05T05:56:24.532Z,1002.3
2017-08-05T05:58:49.521Z,1002.24
2017-08-05T06:01:14.560Z,1002.2
2017-08-05T06:03:16.632Z,1002.18
2017-08-05T06:05:33.235Z,1002.55
2017-08-05T06:07:49.850Z,1002.61
2017-08-05T06:10:15.125Z,1002.27
2017-08-05T06:12:40.504Z,1002.23
2017-08-05T06:15:05.955Z,1002.34
2017-08-05T06:17:31.364Z,1002.47
2017-08-05T06:19:56.922Z,1002.21
2017-08-05T06:22:22.736Z,1002.51
2017-08-05T06:24:48.371Z,1002.5
2017-08-05T06:27:14.462Z,1002.15
2017-08-05T06:29:40.662Z,1002.26
2017-08-05T06:32:07.033Z,1002.41
2017-08-05T06:34:33.662Z,1002.63
2017-08-05T06:37:00.201Z,1002.61
2017-08-05T06:39:27.072Z,1002.66
2017-08-05T06:41:54.043Z,1002.67
2017-08-05T06:44:21.086Z,1002.6
2017-08-05T06:46:48.540Z,1002.55
2017-08-05T06:50:52.495Z,1002.52
2017-08-05T06:53:20.126Z,1002.49
2017-08-05T06:55:47.918Z,1002.61
2017-08-05T06:58:15.685Z,1002.64
2017-08-05T07:00:34.933Z,1002.71
2017-08-05T07:03:02.843Z,1002.73
2017-08-05T07:05:30.789Z,1002.72
2017-08-05T07:07:58.771Z,1002.78
2017-08-05T07:10:27.020Z,1002.74
2017-08-05T07:12:54.911Z,1002.69
2017-08-05T07:15:25.667Z,1002.63
2017-08-05T07:17:53.246Z,1002.55
2017-08-05T07:20:20.759Z,1002.41
2017-08-05T07:22:23.458Z,1002.5
2017-08-05T07:24:50.801Z,1002.43
2017-08-05T07:27:18.425Z,1002.41
2017-08-05T07:29:45.308Z,1002.26
2017-08-05T07:32:12.035Z,1002.42
2017-08-05T07:34:38.657Z,1002.36
2017-08-05T07:37:05.206Z,1002.29
2017-08-05T07:39:31.666Z,1002.21
2017-08-05T07:42:01.198Z,1002.2
2017-08-05T07:44:28.450Z,1002.23
2017-08-05T07:46:30.847Z,1002.22
2017-08-05T07:48:57.107Z,1002.14
2017-08-05T07:51:14.782Z,1002.14
2017-08-05T07:53:32.446Z,1002.11
2017-08-05T07:55:58.675Z,1002.06
2017-08-05T07:58:24.900Z,1002.13
2017-08-05T08:00:42.552Z,1002.29
2017-08-05T08:03:09.644Z,1002.26
2017-08-05T08:05:27.346Z,1002.28
2017-08-05T08:07:53.798Z,1002.29
2017-08-05T08:10:19.983Z,1002.28
2017-08-05T08:12:46.485Z,1002.23
2017-08-05T08:15:12.922Z,1002.28
2017-08-05T08:17:39.222Z,1002.21
2017-08-05T08:20:05.842Z,1002.2
2017-08-05T08:22:32.623Z,1002.19
2017-08-05T08:24:58.773Z,1002.12
2017-08-05T08:27:25.085Z,1002.13
2017-08-05T08:29:51.519Z,1002.09
2017-08-05T08:32:17.814Z,1002.11
2017-08-05T08:34:44.145Z,1002.16
2017-08-05T08:37:10.575Z,1001.94
2017-08-05T08:39:37.064Z,1001.96
2017-08-05T08:42:03.554Z,1001.99
2017-08-05T08:44:15.273Z,1001.88
2017-08-05T08:46:41.662Z,1001.92
2017-08-05T08:49:14.422Z,1002.08
2017-08-05T08:51:40.665Z,1002.06
2017-08-05T08:54:06.810Z,1001.91
2017-08-05T08:56:32.985Z,1001.85
2017-08-05T08:59:06.839Z,1001.72
2017-08-05T09:01:32.530Z,1001.75
2017-08-05T09:03:58.281Z,1001.72
2017-08-05T09:06:23.907Z,1001.72
2017-08-05T09:08:49.482Z,1001.74
2017-08-05T09:11:14.982Z,1001.9
2017-08-05T09:13:40.672Z,1001.74
2017-08-05T09:16:06.553Z,1001.92
2017-08-05T09:18:23.580Z,1001.97
2017-08-05T09:20:49.047Z,1001.73
2017-08-05T09:23:14.458Z,1001.89
2017-08-05T09:25:40.912Z,1001.89
2017-08-05T09:28:06.413Z,1001.74
2017-08-05T09:30:31.904Z,1001.89
2017-08-05T09:32:57.628Z,1001.8
2017-08-05T09:35:23.275Z,1001.78
2017-08-05T09:37:48.675Z,1001.83
2017-08-05T09:40:14.156Z,1001.84
2017-08-05T09:42:39.668Z,1001.78
2017-08-05T09:45:05.104Z,1001.76
2017-08-05T09:47:16.056Z,1001.77
2017-08-05T09:49:41.462Z,1001.81
2017-08-05T09:52:06.679Z,1001.99
2017-08-05T09:54:31.985Z,1001.75
2017-08-05T09:56:57.630Z,1001.8
2017-08-05T09:59:23.419Z,1001.74
2017-08-05T10:01:49.143Z,1001.75
2017-08-05T10:04:15.427Z,1001.75
2017-08-05T10:06:40.930Z,1001.68
2017-08-05T10:09:06.626Z,1001.67
2017-08-05T10:11:32.271Z,1001.59
2017-08-05T10:13:57.403Z,1001.67
2017-08-05T10:16:22.910Z,1001.62
2017-08-05T10:18:48.326Z,1001.67
2017-08-05T10:21:13.484Z,1001.64
2017-08-05T10:23:38.722Z,1001.63
2017-08-05T10:26:03.924Z,1001.65
2017-08-05T10:28:29.157Z,1001.68
2017-08-05T10:30:54.410Z,1001.65
2017-08-05T10:33:19.327Z,1001.66
2017-08-05T10:35:35.942Z,1001.64
2017-08-05T10:38:01.048Z,1001.64
2017-08-05T10:40:26.149Z,1001.55
2017-08-05T10:42:27.800Z,1001.58
2017-08-05T10:44:52.925Z,1001.53
2017-08-05T10:47:18.038Z,1001.51
2017-08-05T10:49:43.136Z,1001.49
2017-08-05T10:52:08.265Z,1001.49
2017-08-05T10:54:33.347Z,1001.44
2017-08-05T10:56:49.997Z,1001.44
2017-08-05T10:59:15.122Z,1001.44
2017-08-05T11:01:40.696Z,1001.43
2017-08-05T11:04:16.401Z,1001.48
2017-08-05T11:06:41.550Z,1001.56
2017-08-05T11:09:06.647Z,1001.56
2017-08-05T11:11:31.779Z,1001.57
2017-08-05T11:13:56.833Z,1001.59
2017-08-05T11:16:21.831Z,1001.64
2017-08-05T11:18:47.087Z,1001.67
2017-08-05T11:21:13.085Z,1001.76
2017-08-05T11:23:39.573Z,1001.82
2017-08-05T11:26:04.508Z,1001.87
2017-08-05T11:28:29.365Z,1001.92
2017-08-05T11:30:54.333Z,1002.02
2017-08-05T11:33:11.089Z,1002.17
2017-08-05T11:35:29.438Z,1002.22
2017-08-05T11:37:54.632Z,1002.29
2017-08-05T11:40:10.911Z,1002.33
2017-08-05T11:42:35.954Z,1002.45
2017-08-05T11:45:00.683Z,1002.45
2017-08-05T11:47:25.378Z,1002.49
2017-08-05T11:49:50.070Z,1002.58
2017-08-05T11:52:14.743Z,1002.65
2017-08-05T11:54:22.447Z,1002.65
2017-08-05T11:56:47.136Z,1002.67
2017-08-05T11:59:11.819Z,1002.61
2017-08-05T12:01:36.478Z,1002.57
2017-08-05T12:04:01.118Z,1002.48
2017-08-05T12:06:25.731Z,1002.5
2017-08-05T12:08:50.419Z,1002.46
2017-08-05T12:11:15.065Z,1002.4
2017-08-05T12:13:39.686Z,1002.38
2017-08-05T12:16:04.403Z,1002.36
2017-08-05T12:18:29.113Z,1002.32
2017-08-05T12:20:45.470Z,1002.31
2017-08-05T12:23:10.207Z,1002.23
2017-08-05T12:25:12.315Z,1002.21
2017-08-05T12:27:37.122Z,1002.23
2017-08-05T12:31:37.754Z,1002.29
2017-08-05T12:34:02.568Z,1002.32
2017-08-05T12:36:18.845Z,1002.38
2017-08-05T12:38:43.573Z,1002.35
2017-08-05T12:41:08.239Z,1002.38
2017-08-05T12:43:32.959Z,1002.44
2017-08-05T12:45:57.595Z,1002.46
2017-08-05T12:48:22.229Z,1002.45
2017-08-05T12:50:46.871Z,1002.42
2017-08-05T12:53:11.496Z,1002.45
2017-08-05T12:55:36.249Z,1002.35
2017-08-05T12:58:00.877Z,1002.36
2017-08-05T13:00:25.427Z,1002.35
2017-08-05T13:02:50.048Z,1002.39
2017-08-05T13:05:14.620Z,1002.42
2017-08-05T13:07:39.256Z,1002.42
2017-08-05T13:09:55.389Z,1002.37
2017-08-05T13:12:20.063Z,1002.31
2017-08-05T13:14:44.734Z,1002.2
2017-08-05T13:17:09.538Z,1002.14
2017-08-05T13:19:34.313Z,1002.03
2017-08-05T13:21:58.951Z,1002.03
2017-08-05T13:24:23.663Z,1001.95
2017-08-05T13:26:48.463Z,1002.04
2017-08-05T13:28:50.527Z,1002
2017-08-05T13:31:15.368Z,1001.94
2017-08-05T13:33:40.000Z,1001.95
2017-08-05T13:35:42.033Z,1001.94
2017-08-05T13:38:06.734Z,1001.9
2017-08-05T13:40:31.472Z,1001.95
2017-08-05T13:42:56.194Z,1001.9
2017-08-05T13:45:12.449Z,1001.85
2017-08-05T13:47:37.188Z,1001.76
2017-08-05T13:50:01.856Z,1001.8
2017-08-05T13:52:26.543Z,1001.83
2017-08-05T13:54:28.582Z,1001.91
2017-08-05T13:56:53.263Z,1001.86
2017-08-05T13:59:17.866Z,1001.89
2017-08-05T14:01:42.513Z,1001.89
2017-08-05T14:03:44.593Z,1001.83
2017-08-05T14:06:10.230Z,1001.79
2017-08-05T14:08:34.977Z,1001.79
2017-08-05T14:10:59.705Z,1001.78
2017-08-05T14:13:24.465Z,1001.82
2017-08-05T14:15:49.195Z,1001.91
2017-08-05T14:18:13.938Z,1001.99
2017-08-05T14:20:38.661Z,1001.95
2017-08-05T14:23:03.390Z,1001.95
2017-08-05T14:25:28.129Z,1002.04
2017-08-05T14:27:44.360Z,1002.03
2017-08-05T14:30:09.110Z,1001.99
2017-08-05T14:32:33.818Z,1002.08
2017-08-05T14:34:58.531Z,1002.11
2017-08-05T14:37:23.365Z,1002.15
2017-08-05T14:39:39.639Z,1002.22
2017-08-05T14:42:04.346Z,1002.22
2017-08-05T14:44:29.051Z,1002.35
2017-08-05T14:46:53.841Z,1002.36
2017-08-05T14:49:18.615Z,1002.42
2017-08-05T14:51:34.941Z,1002.35
2017-08-05T14:53:59.642Z,1002.44
2017-08-05T14:56:24.314Z,1002.49
2017-08-05T14:58:49.118Z,1002.53
2017-08-05T15:01:13.867Z,1002.45
2017-08-05T15:03:38.677Z,1002.39
2017-08-05T15:06:03.476Z,1002.44
2017-08-05T15:08:28.277Z,1002.4
2017-08-05T15:10:53.099Z,1002.34
2017-08-05T15:13:17.909Z,1002.32
2017-08-05T15:15:42.690Z,1002.34
2017-08-05T15:18:07.445Z,1002.28
2017-08-05T15:20:32.235Z,1002.38
2017-08-05T15:22:57.023Z,1002.34
2017-08-05T15:25:21.877Z,1002.41
2017-08-05T15:27:46.582Z,1002.38
2017-08-05T15:29:57.255Z,1002.38
2017-08-05T15:32:22.071Z,1002.44
2017-08-05T15:34:46.909Z,1002.53
2017-08-05T15:36:48.966Z,1002.4
2017-08-05T15:39:13.751Z,1002.41
2017-08-05T15:41:38.540Z,1002.42
2017-08-05T15:43:54.731Z,1002.44
2017-08-05T15:46:19.505Z,1002.41
2017-08-05T15:48:44.277Z,1002.48
2017-08-05T15:51:09.070Z,1002.52
2017-08-05T15:53:33.870Z,1002.53
2017-08-05T15:57:35.002Z,1002.58
2017-08-05T15:59:59.833Z,1002.6
2017-08-05T16:02:24.563Z,1002.67
2017-08-05T16:04:49.302Z,1002.78
2017-08-05T16:07:14.070Z,1002.79
2017-08-05T16:09:38.830Z,1002.8
2017-08-05T16:12:03.564Z,1002.79
2017-08-05T16:14:28.328Z,1002.8
2017-08-05T16:16:53.007Z,1002.97
2017-08-05T16:19:17.699Z,1002.98
2017-08-05T16:21:42.338Z,1003.03
2017-08-05T16:24:06.965Z,1003.01
2017-08-05T16:26:31.794Z,1003.08
2017-08-05T16:28:56.293Z,1002.99
2017-08-05T16:31:20.995Z,1003.11
2017-08-05T16:33:45.637Z,1003.03
2017-08-05T16:36:10.230Z,1003.07
2017-08-05T16:38:34.964Z,1003.1
2017-08-05T16:40:59.538Z,1003.24
2017-08-05T16:43:24.134Z,1003.3
2017-08-05T16:45:48.778Z,1003.35
2017-08-05T16:48:13.373Z,1003.34
2017-08-05T16:50:38.013Z,1003.42
2017-08-05T16:53:02.749Z,1003.47
2017-08-05T16:55:27.326Z,1003.54
2017-08-05T16:57:51.993Z,1003.58
2017-08-05T17:00:16.475Z,1003.59
2017-08-05T17:02:41.109Z,1003.68
2017-08-05T17:05:05.676Z,1003.68
2017-08-05T17:07:30.260Z,1003.75
2017-08-05T17:09:54.861Z,1003.84
2017-08-05T17:12:19.408Z,1003.77
2017-08-05T17:14:29.447Z,1003.87
2017-08-05T17:16:45.542Z,1003.89
2017-08-05T17:19:10.153Z,1004.03
2017-08-05T17:21:26.221Z,1004.08
2017-08-05T17:23:42.370Z,1003.9
2017-08-05T17:26:06.830Z,1004.08
2017-08-05T17:28:31.355Z,1004.15
2017-08-05T17:30:55.808Z,1004.3
2017-08-05T17:33:20.275Z,1004.35
2017-08-05T17:35:44.753Z,1004.31
2017-08-05T17:38:09.254Z,1004.23
2017-08-05T17:40:33.684Z,1004.21
2017-08-05T17:42:58.193Z,1004.2
2017-08-05T17:45:14.213Z,1004.29
2017-08-05T17:47:38.647Z,1004.28
2017-08-05T17:50:03.139Z,1004.34
2017-08-05T17:52:27.626Z,1004.36
2017-08-05T17:54:52.077Z,1004.45
2017-08-05T17:57:16.572Z,1004.46
2017-08-05T17:59:41.044Z,1004.54
2017-08-05T18:02:05.502Z,1004.62
2017-08-05T18:04:29.999Z,1004.7
2017-08-05T18:06:54.477Z,1004.67
2017-08-05T18:09:18.932Z,1004.71
2017-08-05T18:11:43.315Z,1004.6
2017-08-05T18:14:07.746Z,1004.67
2017-08-05T18:16:32.137Z,1004.76
2017-08-05T18:18:57.214Z,1004.83
2017-08-05T18:21:21.635Z,1004.81
2017-08-05T18:23:46.051Z,1004.79
2017-08-05T18:26:10.481Z,1004.82
2017-08-05T18:28:34.879Z,1004.86
2017-08-05T18:30:59.301Z,1004.87
2017-08-05T18:33:23.694Z,1004.88
2017-08-05T18:35:48.115Z,1004.92
2017-08-05T18:38:12.473Z,1004.91
2017-08-05T18:40:36.854Z,1004.97
2017-08-05T18:42:52.807Z,1004.95
2017-08-05T18:45:17.222Z,1004.93
2017-08-05T18:47:33.036Z,1005.04
2017-08-05T18:49:57.330Z,1005.08
2017-08-05T18:52:21.660Z,1005.09
2017-08-05T18:54:46.021Z,1005.11
2017-08-05T18:57:10.301Z,1005.18
2017-08-05T18:59:34.644Z,1005.27
2017-08-05T19:03:34.861Z,1005.32
2017-08-05T19:05:59.174Z,1005.4
2017-08-05T19:08:23.492Z,1005.42
2017-08-05T19:10:47.805Z,1005.43
2017-08-05T19:12:49.834Z,1005.43
2017-08-05T19:15:05.723Z,1005.5
2017-08-05T19:17:30.063Z,1005.5
2017-08-05T19:19:54.352Z,1005.52
2017-08-05T19:22:18.668Z,1005.57
2017-08-05T19:24:42.986Z,1005.57
2017-08-05T19:27:07.304Z,1005.64
2017-08-05T19:29:31.596Z,1005.64
2017-08-05T19:31:55.926Z,1005.7
2017-08-05T19:34:20.243Z,1005.74
2017-08-05T19:36:44.578Z,1005.83
2017-08-05T19:39:08.886Z,1005.87
2017-08-05T19:41:24.741Z,1005.88
2017-08-05T19:43:49.039Z,1005.92
2017-08-05T19:46:13.362Z,1005.95
2017-08-05T19:48:37.630Z,1005.99
2017-08-05T19:51:01.888Z,1006
2017-08-05T19:53:03.826Z,1006.02
2017-08-05T19:55:28.122Z,1006
2017-08-05T19:57:30.041Z,1006.03
2017-08-05T19:59:54.353Z,1006.08
2017-08-05T20:02:18.626Z,1006.07
2017-08-05T20:04:42.887Z,1006.04
2017-08-05T20:07:07.097Z,1006.03
2017-08-05T20:09:31.368Z,1005.99
2017-08-05T20:11:55.593Z,1006.02
2017-08-05T20:14:19.834Z,1006.02
2017-08-05T20:16:44.036Z,1006.08
2017-08-05T20:19:08.256Z,1006.14
2017-08-05T20:21:32.448Z,1006.19
2017-08-05T20:23:56.683Z,1006.14
2017-08-05T20:26:20.892Z,1006.18
2017-08-05T20:28:45.110Z,1006.2
2017-08-05T20:31:09.333Z,1006.16
2017-08-05T20:33:16.652Z,1006.18
2017-08-05T20:35:40.897Z,1006.18
2017-08-05T20:38:05.097Z,1006.22
2017-08-05T20:40:29.336Z,1006.18
2017-08-05T20:42:53.498Z,1006.21
2017-08-05T20:45:17.711Z,1006.21
2017-08-05T20:47:41.936Z,1006.28
2017-08-05T20:50:06.134Z,1006.23
2017-08-05T20:52:30.352Z,1006.25
2017-08-05T20:54:54.575Z,1006.28
2017-08-05T20:57:18.797Z,1006.37
2017-08-05T20:59:42.964Z,1006.28
2017-08-05T21:01:58.691Z,1006.26
2017-08-05T21:04:22.888Z,1006.28
2017-08-05T21:06:47.126Z,1006.36
2017-08-05T21:09:11.324Z,1006.36
2017-08-05T21:11:35.543Z,1006.35
2017-08-05T21:13:59.741Z,1006.37
2017-08-05T21:16:01.675Z,1006.34
2017-08-05T21:18:25.889Z,1006.31
2017-08-05T21:20:50.100Z,1006.36
2017-08-05T21:23:14.281Z,1006.32
2017-08-05T21:25:38.474Z,1006.36
2017-08-05T21:28:02.625Z,1006.35
2017-08-05T21:30:26.754Z,1006.39
2017-08-05T21:32:50.941Z,1006.37
2017-08-05T21:35:15.051Z,1006.35
2017-08-05T21:37:39.197Z,1006.39
2017-08-05T21:40:03.350Z,1006.38
2017-08-05T21:42:27.498Z,1006.4
2017-08-05T21:44:51.677Z,1006.44
2017-08-05T21:47:15.821Z,1006.51
2017-08-05T21:49:39.923Z,1006.58
2017-08-05T21:52:04.016Z,1006.62
2017-08-05T21:54:28.161Z,1006.6
2017-08-05T21:56:52.280Z,1006.6
2017-08-05T21:59:07.991Z,1006.64
2017-08-05T22:01:23.705Z,1006.65
2017-08-05T22:03:47.853Z,1006.66
2017-08-05T22:06:11.993Z,1006.68
2017-08-05T22:08:36.132Z,1006.69
2017-08-05T22:10:38.029Z,1006.66
2017-08-05T22:12:53.727Z,1006.62
2017-08-05T22:15:17.852Z,1006.53
2017-08-05T22:17:33.501Z,1006.57
2017-08-05T22:19:57.580Z,1006.65
2017-08-05T22:22:21.715Z,1006.69
2017-08-05T22:24:45.817Z,1006.7
2017-08-05T22:27:09.932Z,1006.74
2017-08-05T22:29:34.035Z,1006.76
2017-08-05T22:31:49.650Z,1006.81
2017-08-05T22:34:13.742Z,1006.8
2017-08-05T22:36:37.857Z,1006.78
2017-08-05T22:38:53.537Z,1006.79
2017-08-05T22:41:17.675Z,1006.82
2017-08-05T22:43:41.756Z,1006.88
2017-08-05T22:46:05.872Z,1006.9
2017-08-05T22:48:29.999Z,1006.87
2017-08-05T22:50:54.115Z,1006.86
2017-08-05T22:53:18.227Z,1006.87
2017-08-05T22:55:33.799Z,1006.86
2017-08-05T22:57:49.440Z,1006.89
2017-08-05T22:59:51.340Z,1006.93
2017-08-05T23:02:06.957Z,1006.91
2017-08-05T23:04:31.062Z,1006.92
2017-08-05T23:06:55.145Z,1006.92
2017-08-05T23:09:10.772Z,1006.88
2017-08-05T23:11:34.818Z,1006.93
2017-08-05T23:13:41.983Z,1006.98
2017-08-05T23:16:06.057Z,1006.96
2017-08-05T23:18:07.967Z,1006.94
2017-08-05T23:20:32.002Z,1006.98
2017-08-05T23:22:56.067Z,1006.99
2017-08-05T23:24:57.945Z,1007.01
2017-08-05T23:27:22.047Z,1007.03
2017-08-05T23:29:46.092Z,1007.11
2017-08-05T23:32:10.145Z,1007.1
2017-08-05T23:34:34.192Z,1007.08
2017-08-05T23:36:49.775Z,1007.12
2017-08-05T23:39:13.830Z,1007.18
2017-08-05T23:41:37.952Z,1007.19
2017-08-05T23:44:01.994Z,1007.17
2017-08-05T23:46:25.975Z,1007.2
2017-08-05T23:48:50.035Z,1007.17
2017-08-05T23:51:14.159Z,1007.16
2017-08-05T23:53:38.118Z,1007.18
2017-08-05T23:56:02.131Z,1007.22
2017-08-05T23:58:26.142Z,1007.28
